Terminal Aerodrome Forecast
Issued by NWS San Angelo, TX

Current Version | Previous Version | Text Only | Print | Product List | Glossary On
Versions: 1 2 3 4 5 6 7 8 9 10 11 12 13 14
181
FTUS44 KSJT 240520
TAFABI
TAF
KABI 240520Z 2406/2506 13010KT P6SM SKC
     FM241500 19011KT P6SM SKC
     FM242100 15010KT P6SM SKC=

USA.gov is the U.S. government's official web portal to all federal, state and local government web resources and services.